Weather at Campbell-Pratt Airport

Public forecast

Using degrees Fahrenheit for public forecast. Weather courtesy of forecast.io.

Closest aviation weather report (METAR) to Campbell-Pratt Airport

Closest report is Pellston Regional Airport of Emmet County Airport, 12.9 nm (23.9 km) NW. Retrieved 2021/10/28 10:27 UTC (0 seconds ago):

KPLN 281027Z AUTO 06005KT 10SM SCT015 06/06 A2993 RMK AO2 T00610056

Closest aviation forecast (TAF) to Campbell-Pratt Airport

Closest forecast is Pellston Regional Airport of Emmet County Airport, 12.9 nm (23.9 km) NW. Retrieved 2021/10/28 06:24 UTC (4 hours ago):

TAF KPLN 280521Z 2806/2906 13006KT P6SM OVC010 FM281400 10005KT P6SM OVC012 FM281600 10009KT P6SM BKN026 FM281800 09010G16KT P6SM BKN220 FM290300 09007KT P6SM BKN150